createdAt,value
2023-04-27T00:02:42.589Z,31.86
2023-04-27T00:08:04.916Z,31.91
2023-04-27T00:13:27.420Z,31.52
2023-04-27T00:18:49.328Z,31.71
2023-04-27T00:24:11.199Z,31.40
2023-04-27T00:29:33.032Z,31.63
2023-04-27T00:34:54.846Z,31.60
2023-04-27T00:40:16.999Z,31.46
2023-04-27T00:45:43.612Z,31.76
2023-04-27T00:51:06.260Z,31.35
2023-04-27T00:56:28.112Z,31.96
2023-04-27T01:01:50.199Z,32.04
2023-04-27T01:07:12.224Z,32.02
2023-04-27T01:12:34.104Z,32.01
2023-04-27T01:18:00.116Z,31.74
2023-04-27T01:23:22.141Z,31.91
2023-04-27T01:28:43.953Z,31.93
2023-04-27T01:34:06.404Z,32.22
2023-04-27T01:39:28.257Z,31.92
2023-04-27T01:44:50.067Z,32.10
2023-04-27T01:50:11.830Z,31.56
2023-04-27T01:55:33.734Z,31.60
2023-04-27T02:00:55.681Z,31.99
2023-04-27T02:06:17.518Z,32.12
2023-04-27T02:11:39.619Z,32.10
2023-04-27T02:17:01.437Z,31.99
2023-04-27T02:22:23.512Z,31.92
2023-04-27T02:27:45.330Z,31.54
2023-04-27T02:33:07.780Z,31.74
2023-04-27T02:38:30.386Z,31.62
2023-04-27T02:43:52.350Z,31.34
2023-04-27T02:49:14.650Z,31.65
2023-04-27T02:54:36.943Z,31.39
2023-04-27T02:59:58.777Z,31.33
2023-04-27T03:05:20.621Z,31.72
2023-04-27T03:10:42.481Z,31.70
2023-04-27T03:16:04.425Z,31.37
2023-04-27T03:21:27.198Z,31.73
2023-04-27T03:26:49.057Z,31.79
2023-04-27T03:32:10.944Z,31.66
2023-04-27T03:37:33.102Z,31.90
2023-04-27T03:42:54.868Z,31.42
2023-04-27T03:48:17.213Z,31.61
2023-04-27T03:53:39.052Z,31.45
2023-04-27T03:59:00.997Z,31.36
2023-04-27T04:04:23.036Z,31.69
2023-04-27T04:09:44.856Z,31.63
2023-04-27T04:15:08.092Z,31.26
2023-04-27T04:20:29.889Z,31.59
2023-04-27T04:25:51.842Z,31.72
2023-04-27T04:31:15.228Z,31.73
2023-04-27T04:36:37.073Z,31.66
2023-04-27T04:41:59.020Z,31.59
2023-04-27T04:47:20.792Z,31.22
2023-04-27T04:52:42.657Z,31.36
2023-04-27T04:58:04.445Z,31.27
2023-04-27T05:03:26.483Z,31.37
2023-04-27T05:08:48.552Z,31.75
2023-04-27T05:14:10.350Z,31.18
2023-04-27T05:19:32.505Z,31.05
2023-04-27T05:24:54.389Z,30.95
2023-04-27T05:30:16.164Z,30.57
2023-04-27T05:35:38.014Z,30.40
2023-04-27T05:41:00.341Z,30.29
2023-04-27T05:46:22.378Z,30.35
2023-04-27T05:51:44.710Z,30.29
2023-04-27T05:57:06.579Z,30.40
2023-04-27T06:02:28.582Z,30.29
2023-04-27T06:07:50.791Z,30.33
2023-04-27T06:13:12.553Z,29.99
2023-04-27T06:18:34.463Z,30.28
2023-04-27T06:23:56.317Z,30.04
2023-04-27T06:29:18.330Z,29.97
2023-04-27T06:34:40.171Z,30.16
2023-04-27T06:40:02.079Z,30.27
2023-04-27T06:45:24.276Z,30.02
2023-04-27T06:50:47.479Z,29.46
2023-04-27T06:56:11.927Z,29.24
2023-04-27T07:01:33.901Z,29.50
2023-04-27T07:06:56.364Z,28.82
2023-04-27T07:12:18.206Z,29.11
2023-04-27T07:17:40.129Z,29.02
2023-04-27T07:23:02.038Z,28.83
2023-04-27T07:28:23.867Z,28.25
2023-04-27T07:33:46.744Z,28.35
2023-04-27T07:39:08.537Z,28.15
2023-04-27T07:44:30.862Z,28.48
2023-04-27T07:49:53.337Z,28.14
2023-04-27T07:55:15.125Z,28.36
2023-04-27T08:00:37.623Z,28.21
2023-04-27T08:05:59.786Z,28.48
2023-04-27T08:11:22.819Z,28.36
2023-04-27T08:16:44.999Z,28.46
2023-04-27T08:22:07.048Z,28.72
2023-04-27T08:27:28.945Z,28.32
2023-04-27T08:32:50.809Z,28.31
2023-04-27T08:38:12.704Z,28.05
2023-04-27T08:43:36.311Z,27.97
2023-04-27T08:48:58.171Z,28.11
2023-04-27T08:54:21.001Z,27.59
2023-04-27T08:59:45.490Z,27.58
2023-04-27T09:05:16.160Z,27.22
2023-04-27T09:10:50.327Z,26.48
2023-04-27T09:16:15.343Z,26.45
2023-04-27T09:21:37.275Z,26.36
2023-04-27T09:27:00.657Z,26.27
2023-04-27T09:32:22.876Z,26.30
2023-04-27T09:37:45.029Z,26.26
2023-04-27T09:43:07.875Z,26.26
2023-04-27T09:48:29.954Z,26.15
2023-04-27T09:53:58.953Z,25.28
2023-04-27T09:59:55.767Z,24.91
2023-04-27T10:05:54.989Z,24.81
2023-04-27T10:11:19.766Z,24.94
2023-04-27T10:16:55.816Z,24.83
2023-04-27T10:22:17.750Z,25.11
2023-04-27T10:27:41.398Z,25.38
2023-04-27T10:33:11.156Z,25.27
2023-04-27T10:38:33.374Z,25.46
2023-04-27T10:43:55.336Z,26.08
2023-04-27T10:49:17.165Z,25.92
2023-04-27T10:54:39.996Z,26.06
2023-04-27T11:00:01.909Z,26.13
2023-04-27T11:05:25.674Z,25.88
2023-04-27T11:10:50.825Z,25.71
2023-04-27T11:16:12.832Z,25.80
2023-04-27T11:21:34.683Z,25.58
2023-04-27T11:26:56.495Z,25.79
2023-04-27T11:32:23.128Z,25.55
2023-04-27T11:37:45.117Z,25.70
2023-04-27T11:43:07.152Z,25.50
2023-04-27T11:48:29.662Z,25.52
2023-04-27T11:53:52.453Z,25.31
2023-04-27T11:59:21.988Z,25.22
2023-04-27T12:04:43.958Z,25.38
2023-04-27T12:10:08.138Z,25.35
2023-04-27T12:15:30.005Z,24.78
2023-04-27T12:20:52.237Z,24.89
2023-04-27T12:26:15.129Z,24.83
2023-04-27T12:31:37.421Z,25.04
2023-04-27T12:36:59.380Z,25.03
2023-04-27T12:42:24.420Z,25.06
2023-04-27T12:47:58.114Z,25.67
2023-04-27T12:53:24.228Z,25.43
2023-04-27T12:58:46.604Z,25.90
2023-04-27T13:04:09.391Z,25.86
2023-04-27T13:09:31.447Z,26.57
2023-04-27T13:14:53.275Z,26.39
2023-04-27T13:20:15.752Z,26.63
2023-04-27T13:25:37.766Z,27.04
2023-04-27T13:31:00.477Z,27.31
2023-04-27T13:36:22.645Z,27.29
2023-04-27T13:41:44.482Z,27.50
2023-04-27T13:47:07.108Z,27.89
2023-04-27T13:52:29.805Z,28.05
2023-04-27T13:57:51.624Z,27.86
2023-04-27T14:03:13.568Z,27.76
2023-04-27T14:08:35.556Z,28.25
2023-04-27T14:13:58.230Z,27.86
2023-04-27T14:19:20.905Z,27.90
2023-04-27T14:24:42.788Z,27.90
2023-04-27T14:30:05.555Z,28.19
2023-04-27T14:35:28.162Z,28.21
2023-04-27T14:40:49.946Z,27.92
2023-04-27T14:46:20.470Z,27.74
2023-04-27T14:51:43.673Z,27.94
2023-04-27T14:57:06.092Z,27.93
2023-04-27T15:02:28.027Z,28.01
2023-04-27T15:07:49.881Z,28.40
2023-04-27T15:13:12.140Z,28.63
2023-04-27T15:18:34.371Z,28.71
2023-04-27T15:23:56.229Z,28.43
2023-04-27T15:29:17.977Z,29.05
2023-04-27T15:34:42.825Z,29.02
2023-04-27T15:40:07.674Z,29.46
2023-04-27T15:45:29.937Z,29.79
2023-04-27T15:50:51.815Z,29.43
2023-04-27T15:56:13.645Z,29.45
2023-04-27T16:01:35.703Z,29.35
2023-04-27T16:06:57.806Z,29.86
2023-04-27T16:12:19.700Z,29.63
2023-04-27T16:17:41.897Z,30.04
2023-04-27T16:23:03.823Z,29.58
2023-04-27T16:28:25.744Z,29.85
2023-04-27T16:33:48.504Z,29.88
2023-04-27T16:39:11.074Z,30.28
2023-04-27T16:44:32.965Z,30.38
2023-04-27T16:49:54.779Z,30.02
2023-04-27T16:55:16.752Z,30.55
2023-04-27T17:00:40.438Z,30.82
2023-04-27T17:06:03.258Z,31.15
2023-04-27T17:11:25.194Z,31.87
2023-04-27T17:16:47.031Z,32.14
2023-04-27T17:22:11.547Z,32.19
2023-04-27T17:27:33.385Z,32.28
2023-04-27T17:32:55.296Z,33.03
2023-04-27T17:38:17.332Z,32.75
2023-04-27T17:43:39.181Z,32.88
2023-04-27T17:49:01.318Z,33.34
2023-04-27T17:54:23.159Z,32.85
2023-04-27T17:59:45.715Z,32.31
2023-04-27T18:05:08.115Z,33.06
2023-04-27T18:10:29.909Z,34.50
2023-04-27T18:15:51.740Z,34.99
2023-04-27T18:21:13.488Z,35.80
2023-04-27T18:26:37.038Z,36.75
2023-04-27T18:32:01.891Z,37.09
2023-04-27T18:37:23.749Z,37.03
2023-04-27T18:42:45.646Z,36.92
2023-04-27T18:48:07.461Z,37.26
2023-04-27T18:53:29.322Z,37.14
2023-04-27T18:58:51.365Z,36.89
2023-04-27T19:04:13.449Z,35.66
2023-04-27T19:09:35.459Z,36.02
2023-04-27T19:14:57.277Z,36.67
2023-04-27T19:20:19.382Z,36.92
2023-04-27T19:25:41.341Z,37.42
2023-04-27T19:31:03.312Z,37.36
2023-04-27T19:36:26.362Z,37.96
2023-04-27T19:41:48.355Z,37.74
2023-04-27T19:47:13.152Z,37.95
2023-04-27T19:52:34.975Z,38.45
2023-04-27T19:57:56.990Z,38.74
2023-04-27T20:03:19.092Z,38.74
2023-04-27T20:08:41.147Z,38.81
2023-04-27T20:14:03.046Z,38.97
2023-04-27T20:19:25.338Z,39.10
2023-04-27T20:24:47.350Z,39.18
2023-04-27T20:30:09.746Z,38.79
2023-04-27T20:35:31.623Z,39.22
2023-04-27T20:40:53.709Z,38.89
2023-04-27T20:46:15.578Z,39.13
2023-04-27T20:51:37.429Z,39.12
2023-04-27T20:57:02.341Z,38.76
2023-04-27T21:02:24.327Z,39.08
2023-04-27T21:07:46.366Z,39.25
2023-04-27T21:13:08.567Z,39.11
2023-04-27T21:18:30.992Z,39.24
2023-04-27T21:24:04.169Z,38.19
2023-04-27T21:29:28.804Z,37.58
2023-04-27T21:34:50.691Z,37.69
2023-04-27T21:40:12.748Z,37.63
2023-04-27T21:45:34.635Z,37.27
2023-04-27T21:50:56.394Z,37.39
2023-04-27T21:56:18.165Z,37.28
2023-04-27T22:01:40.057Z,37.46
2023-04-27T22:07:02.661Z,37.38
2023-04-27T22:12:24.635Z,37.74
2023-04-27T22:17:46.475Z,37.34
2023-04-27T22:23:09.590Z,37.26
2023-04-27T22:28:31.352Z,37.23
2023-04-27T22:33:53.197Z,37.30
2023-04-27T22:39:15.176Z,37.50
2023-04-27T22:44:36.924Z,37.59
2023-04-27T22:49:59.368Z,37.27
2023-04-27T22:55:21.417Z,37.39
2023-04-27T23:00:43.182Z,37.32
2023-04-27T23:06:05.634Z,36.77
2023-04-27T23:11:28.066Z,37.11
2023-04-27T23:16:50.081Z,36.75
2023-04-27T23:22:11.853Z,36.82
2023-04-27T23:27:33.664Z,36.78
2023-04-27T23:32:55.483Z,36.62
2023-04-27T23:38:17.481Z,36.41
2023-04-27T23:43:39.861Z,36.66
2023-04-27T23:49:01.878Z,36.72
2023-04-27T23:54:23.759Z,36.70
2023-04-27T23:59:45.962Z,36.90
